MSC Turchia — A8IL9 — position and weather

sailwx.info

Track history (hours):
 
Tides and Currents Weather Stations Pressure Air Temp Water Temp Dewpoint Dewpoint Depression Visibility Wind Speed Wind Dir Waves Ship Positions

MSC Turchia

Last reported at 2014-Sep-02 20:32 UTC. Time now 2014-Sep-02 21:27 UTC.
Position N 39°13' E 009°04'.

Length 276 m; beam 40 m; draft 14 m.

Type: Ship (hazmat cat D). MMSI: 636091212.

Date/timePositionNaut miles runAvg speedWind from/ knotsBaromVisibWave heightAir tempDewpointWater temp
2014-Sep-02 20:32N 39°13' E 009°04'4 3.6
2014-Sep-02 19:33N 39°10' E 009°06'1111.4
2014-Sep-02 18:33N 38°59' E 009°07'1919.1
2014-Sep-02 17:34N 38°45' E 008°50'1918.7
2014-Sep-02 16:33N 38°38' E 008°27'19219.2
2014-Sep-02 06:33N 37°48' E 004°32'1322.2
2014-Sep-02 06:00N 37°42' E 004°18'12319.1 200 / 51014.010.8 23.523.5
2014-Sep-01 23:32N 37°13' E 001°47'1919.1
2014-Sep-01 22:33N 37°09' E 001°24'1919.4
2014-Sep-01 21:33N 37°04' E 001°01'2019.2
2014-Sep-01 20:32N 36°58' E 000°37'1919.8
2014-Sep-01 19:33N 36°53' E 000°14'1919.1
2014-Sep-01 18:34N 36°49' W 000°10'1919.2
2014-Sep-01 17:33N 36°44' W 000°33'1919.2
2014-Sep-01 16:33N 36°39' W 000°56'21819.8
2014-Sep-01 05:33N 35°58' W 005°21'55 1.8
2014-Aug-30 23:33N 35°57' W 006°30'1615.1
2014-Aug-30 22:31N 36°01' W 006°48'1515.4
2014-Aug-30 21:33N 36°05' W 007°06'1515.4
2014-Aug-30 20:34N 36°10' W 007°24'1715.5
2014-Aug-30 19:26N 36°14' W 007°45'3514.9
2014-Aug-30 17:07N 36°23' W 008°27'814.9
2014-Aug-30 16:34N 36°25' W 008°37'1514.8
2014-Aug-30 15:34N 36°29' W 008°54'1815.4
2014-Aug-30 14:22N 36°34' W 009°16'4114.6
2014-Aug-30 11:31N 37°11' W 009°40'8615.6
2014-Aug-30 06:00N 38°36' W 010°00'   340 / 131017.010.8 1.021.017.8
2014-Aug-27 21:22N 50°13' W 001°38'910.4
2014-Aug-27 20:31N 50°15' W 001°25'1211.1
2014-Aug-27 19:27N 50°19' W 001°07'1212.9
2014-Aug-27 18:33N 50°22' W 000°50'1514.9
2014-Aug-27 17:33N 50°27' W 000°27'1615.6
2014-Aug-27 16:33N 50°31' W 000°04'1615.7
2014-Aug-27 15:33N 50°36' E 000°20'1515.0
2014-Aug-27 14:33N 50°40' E 000°42'1413.8
2014-Aug-27 13:34N 50°49' E 000°59'1312.6
2014-Aug-27 12:33N 50°57' E 001°14'1212.5
2014-Aug-27 11:34N 51°05' E 001°30'1414.4
2014-Aug-27 10:33N 51°15' E 001°47'1515.4
2014-Aug-27 09:33N 51°30' E 001°51'1414.2
2014-Aug-27 08:34N 51°43' E 001°44'9 9.2
2014-Aug-27 07:33N 51°50' E 001°34'1716.6
2014-Aug-27 06:33N 51°36' E 001°18'1717.1
2014-Aug-27 05:34N 51°29' E 000°53'1414.5
2014-Aug-27 04:34N 51°30' E 000°30'0 0.1
2014-Aug-27 03:33N 51°30' E 000°30'0 0.0
2014-Aug-27 02:33N 51°30' E 000°30'0 0.0
2014-Aug-27 01:33N 51°30' E 000°30'0 0.0
2014-Aug-27 00:33N 51°30' E 000°30'0 0.0
2014-Aug-26 23:33N 51°30' E 000°30'0 0.0
2014-Aug-26 22:33N 51°30' E 000°30'0 0.0
2014-Aug-26 21:33N 51°30' E 000°30'0 0.0
2014-Aug-26 20:33N 51°30' E 000°30'0 0.0
2014-Aug-26 19:33N 51°30' E 000°30'0 0.0
2014-Aug-26 18:33N 51°30' E 000°30'0 0.0
2014-Aug-26 17:33N 51°30' E 000°30'0 0.0
2014-Aug-26 16:33N 51°30' E 000°30'0 0.0
2014-Aug-26 15:33N 51°30' E 000°30'0 0.0
2014-Aug-26 14:33N 51°30' E 000°30'0 0.0
2014-Aug-26 13:33N 51°30' E 000°30'0 0.0
2014-Aug-26 12:33N 51°30' E 000°30'0 0.0
2014-Aug-26 11:33N 51°30' E 000°30'0 0.0
2014-Aug-26 10:33N 51°30' E 000°30'0 0.0
2014-Aug-26 09:33N 51°30' E 000°30'0 0.0
2014-Aug-26 08:33N 51°30' E 000°30'0 0.0
2014-Aug-26 07:33N 51°30' E 000°30'0 0.0
2014-Aug-26 06:33N 51°30' E 000°30'0 0.0
2014-Aug-26 05:33N 51°30' E 000°30'3 2.8
2014-Aug-26 04:33N 51°30' E 000°35'1111.2
2014-Aug-26 03:33N 51°29' E 000°53'1211.6
2014-Aug-26 02:33N 51°33' E 001°10'1010.0
2014-Aug-26 01:33N 51°39' E 001°24'1110.7
2014-Aug-26 00:33N 51°48' E 001°34'7 6.5
2014-Aug-25 23:32N 51°53' E 001°40'0 0.1
2014-Aug-25 22:32N 51°53' E 001°40'0 0.0
2014-Aug-25 21:32N 51°53' E 001°40'0 0.0
2014-Aug-25 20:32N 51°53' E 001°40'0 0.1
2014-Aug-25 19:32N 51°53' E 001°40'0 0.2
2014-Aug-25 18:32N 51°53' E 001°40'0 0.1
2014-Aug-25 17:32N 51°53' E 001°40'0 0.0
2014-Aug-25 16:32N 51°53' E 001°40'0 0.0
2014-Aug-25 15:32N 51°53' E 001°40'0 0.0
2014-Aug-25 14:32N 51°53' E 001°40'0 0.0
2014-Aug-25 13:32N 51°53' E 001°40'0 0.1
2014-Aug-25 12:32N 51°53' E 001°40'0 0.1
2014-Aug-25 11:29N 51°53' E 001°40'0 0.2
2014-Aug-25 10:32N 51°53' E 001°40'0 0.0
2014-Aug-25 09:32N 51°53' E 001°40'0 0.0
2014-Aug-25 08:32N 51°53' E 001°40'0 0.0
2014-Aug-25 07:32N 51°53' E 001°40'0 0.1
2014-Aug-25 06:32N 51°53' E 001°40'0 0.3
2014-Aug-25 05:32N 51°53' E 001°40'0 0.1
2014-Aug-25 04:33N 51°53' E 001°40'5 5.3
2014-Aug-25 03:33N 51°52' E 001°48'1413.6
2014-Aug-25 02:33N 51°38' E 001°50'1312.4
2014-Aug-25 01:33N 51°27' E 001°59'1411.4
2014-Aug-25 00:22N 51°20' E 002°18'810.1
2014-Aug-24 23:31N 51°23' E 002°31'1110.8
2014-Aug-24 22:32N 51°22' E 002°48'1516.0
2014-Aug-24 21:34N 51°24' E 003°12'1514.7
2014-Aug-24 20:33N 51°26' E 003°36'1212.3
2014-Aug-24 19:33N 51°22' E 003°55'1111.5
2014-Aug-24 18:33N 51°23' E 004°13'4 4.0
2014-Aug-24 17:33N 51°20' E 004°17'0 0.0
2014-Aug-24 16:33N 51°20' E 004°17'0 0.0
2014-Aug-24 15:33N 51°20' E 004°17'0 0.0
2014-Aug-24 14:34N 51°20' E 004°17'0 0.0
2014-Aug-24 13:33N 51°20' E 004°17'0 0.0
2014-Aug-24 12:33N 51°20' E 004°17'0 0.0
2014-Aug-24 11:33N 51°20' E 004°17'0 0.0
2014-Aug-24 10:33N 51°20' E 004°17'0 0.0
2014-Aug-24 09:33N 51°20' E 004°17'0 0.0
2014-Aug-24 08:33N 51°20' E 004°17'0 0.0
2014-Aug-24 07:33N 51°20' E 004°17'0 0.0
2014-Aug-24 06:33N 51°20' E 004°17'0 0.0
2014-Aug-24 05:33N 51°20' E 004°17'0 0.0
2014-Aug-24 04:33N 51°20' E 004°17'0 0.0
2014-Aug-24 03:33N 51°20' E 004°17'0 0.0
2014-Aug-24 02:33N 51°20' E 004°17'0 0.0
2014-Aug-24 01:33N 51°20' E 004°17'0 0.0
2014-Aug-24 00:33N 51°20' E 004°17'0 0.0
2014-Aug-23 23:33N 51°20' E 004°17'0 0.0
2014-Aug-23 22:33N 51°20' E 004°17'0 0.0
2014-Aug-23 21:33N 51°20' E 004°17'0 0.0
2014-Aug-23 20:34N 51°20' E 004°17'  
Track history (hours):
 
Tides and Currents Weather Stations Pressure Air Temp Water Temp Dewpoint Dewpoint Depression Visibility Wind Speed Wind Dir Waves Ship Positions

MSC Turchia

Last reported at 2014-Sep-02 20:32 UTC. Time now 2014-Sep-02 21:27 UTC.
Position N 39°13' E 009°04'.

Length 276 m; beam 40 m; draft 14 m.

Type: Ship (hazmat cat D). MMSI: 636091212.

Date/timePositionNaut miles runAvg speedWind from/ knotsBaromVisibWave heightAir tempDewpointWater temp
2014-Sep-02 20:32N 39°13' E 009°04'4 3.6
2014-Sep-02 19:33N 39°10' E 009°06'1111.4
2014-Sep-02 18:33N 38°59' E 009°07'1919.1
2014-Sep-02 17:34N 38°45' E 008°50'1918.7
2014-Sep-02 16:33N 38°38' E 008°27'19219.2
2014-Sep-02 06:33N 37°48' E 004°32'1322.2
2014-Sep-02 06:00N 37°42' E 004°18'12319.1 200 / 51014.010.8 23.523.5
2014-Sep-01 23:32N 37°13' E 001°47'1919.1
2014-Sep-01 22:33N 37°09' E 001°24'1919.4
2014-Sep-01 21:33N 37°04' E 001°01'2019.2
2014-Sep-01 20:32N 36°58' E 000°37'1919.8
2014-Sep-01 19:33N 36°53' E 000°14'1919.1
2014-Sep-01 18:34N 36°49' W 000°10'1919.2
2014-Sep-01 17:33N 36°44' W 000°33'1919.2
2014-Sep-01 16:33N 36°39' W 000°56'21819.8
2014-Sep-01 05:33N 35°58' W 005°21'55 1.8
2014-Aug-30 23:33N 35°57' W 006°30'1615.1
2014-Aug-30 22:31N 36°01' W 006°48'1515.4
2014-Aug-30 21:33N 36°05' W 007°06'1515.4
2014-Aug-30 20:34N 36°10' W 007°24'1715.5
2014-Aug-30 19:26N 36°14' W 007°45'3514.9
2014-Aug-30 17:07N 36°23' W 008°27'814.9
2014-Aug-30 16:34N 36°25' W 008°37'1514.8
2014-Aug-30 15:34N 36°29' W 008°54'1815.4
2014-Aug-30 14:22N 36°34' W 009°16'4114.6
2014-Aug-30 11:31N 37°11' W 009°40'8615.6
2014-Aug-30 06:00N 38°36' W 010°00'   340 / 131017.010.8 1.021.017.8
2014-Aug-27 21:22N 50°13' W 001°38'910.4
2014-Aug-27 20:31N 50°15' W 001°25'1211.1
2014-Aug-27 19:27N 50°19' W 001°07'1212.9
2014-Aug-27 18:33N 50°22' W 000°50'1514.9
2014-Aug-27 17:33N 50°27' W 000°27'1615.6
2014-Aug-27 16:33N 50°31' W 000°04'1615.7
2014-Aug-27 15:33N 50°36' E 000°20'1515.0
2014-Aug-27 14:33N 50°40' E 000°42'1413.8
2014-Aug-27 13:34N 50°49' E 000°59'1312.6
2014-Aug-27 12:33N 50°57' E 001°14'1212.5
2014-Aug-27 11:34N 51°05' E 001°30'1414.4
2014-Aug-27 10:33N 51°15' E 001°47'1515.4
2014-Aug-27 09:33N 51°30' E 001°51'1414.2
2014-Aug-27 08:34N 51°43' E 001°44'9 9.2
2014-Aug-27 07:33N 51°50' E 001°34'1716.6
2014-Aug-27 06:33N 51°36' E 001°18'1717.1
2014-Aug-27 05:34N 51°29' E 000°53'1414.5
2014-Aug-27 04:34N 51°30' E 000°30'0 0.1
2014-Aug-27 03:33N 51°30' E 000°30'0 0.0
2014-Aug-27 02:33N 51°30' E 000°30'0 0.0
2014-Aug-27 01:33N 51°30' E 000°30'0 0.0
2014-Aug-27 00:33N 51°30' E 000°30'0 0.0
2014-Aug-26 23:33N 51°30' E 000°30'0 0.0
2014-Aug-26 22:33N 51°30' E 000°30'0 0.0
2014-Aug-26 21:33N 51°30' E 000°30'0 0.0
2014-Aug-26 20:33N 51°30' E 000°30'0 0.0
2014-Aug-26 19:33N 51°30' E 000°30'0 0.0
2014-Aug-26 18:33N 51°30' E 000°30'0 0.0
2014-Aug-26 17:33N 51°30' E 000°30'0 0.0
2014-Aug-26 16:33N 51°30' E 000°30'0 0.0
2014-Aug-26 15:33N 51°30' E 000°30'0 0.0
2014-Aug-26 14:33N 51°30' E 000°30'0 0.0
2014-Aug-26 13:33N 51°30' E 000°30'0 0.0
2014-Aug-26 12:33N 51°30' E 000°30'0 0.0
2014-Aug-26 11:33N 51°30' E 000°30'0 0.0
2014-Aug-26 10:33N 51°30' E 000°30'0 0.0
2014-Aug-26 09:33N 51°30' E 000°30'0 0.0
2014-Aug-26 08:33N 51°30' E 000°30'0 0.0
2014-Aug-26 07:33N 51°30' E 000°30'0 0.0
2014-Aug-26 06:33N 51°30' E 000°30'0 0.0
2014-Aug-26 05:33N 51°30' E 000°30'3 2.8
2014-Aug-26 04:33N 51°30' E 000°35'1111.2
2014-Aug-26 03:33N 51°29' E 000°53'1211.6
2014-Aug-26 02:33N 51°33' E 001°10'1010.0
2014-Aug-26 01:33N 51°39' E 001°24'1110.7
2014-Aug-26 00:33N 51°48' E 001°34'7 6.5
2014-Aug-25 23:32N 51°53' E 001°40'0 0.1
2014-Aug-25 22:32N 51°53' E 001°40'0 0.0
2014-Aug-25 21:32N 51°53' E 001°40'0 0.0
2014-Aug-25 20:32N 51°53' E 001°40'0 0.1
2014-Aug-25 19:32N 51°53' E 001°40'0 0.2
2014-Aug-25 18:32N 51°53' E 001°40'0 0.1
2014-Aug-25 17:32N 51°53' E 001°40'0 0.0
2014-Aug-25 16:32N 51°53' E 001°40'0 0.0
2014-Aug-25 15:32N 51°53' E 001°40'0 0.0
2014-Aug-25 14:32N 51°53' E 001°40'0 0.0
2014-Aug-25 13:32N 51°53' E 001°40'0 0.1
2014-Aug-25 12:32N 51°53' E 001°40'0 0.1
2014-Aug-25 11:29N 51°53' E 001°40'0 0.2
2014-Aug-25 10:32N 51°53' E 001°40'0 0.0
2014-Aug-25 09:32N 51°53' E 001°40'0 0.0
2014-Aug-25 08:32N 51°53' E 001°40'0 0.0
2014-Aug-25 07:32N 51°53' E 001°40'0 0.1
2014-Aug-25 06:32N 51°53' E 001°40'0 0.3
2014-Aug-25 05:32N 51°53' E 001°40'0 0.1
2014-Aug-25 04:33N 51°53' E 001°40'5 5.3
2014-Aug-25 03:33N 51°52' E 001°48'1413.6
2014-Aug-25 02:33N 51°38' E 001°50'1312.4
2014-Aug-25 01:33N 51°27' E 001°59'1411.4
2014-Aug-25 00:22N 51°20' E 002°18'810.1
2014-Aug-24 23:31N 51°23' E 002°31'1110.8
2014-Aug-24 22:32N 51°22' E 002°48'1516.0
2014-Aug-24 21:34N 51°24' E 003°12'1514.7
2014-Aug-24 20:33N 51°26' E 003°36'1212.3
2014-Aug-24 19:33N 51°22' E 003°55'1111.5
2014-Aug-24 18:33N 51°23' E 004°13'4 4.0
2014-Aug-24 17:33N 51°20' E 004°17'0 0.0
2014-Aug-24 16:33N 51°20' E 004°17'0 0.0
2014-Aug-24 15:33N 51°20' E 004°17'0 0.0
2014-Aug-24 14:34N 51°20' E 004°17'0 0.0
2014-Aug-24 13:33N 51°20' E 004°17'0 0.0
2014-Aug-24 12:33N 51°20' E 004°17'0 0.0
2014-Aug-24 11:33N 51°20' E 004°17'0 0.0
2014-Aug-24 10:33N 51°20' E 004°17'0 0.0
2014-Aug-24 09:33N 51°20' E 004°17'0 0.0
2014-Aug-24 08:33N 51°20' E 004°17'0 0.0
2014-Aug-24 07:33N 51°20' E 004°17'0 0.0
2014-Aug-24 06:33N 51°20' E 004°17'0 0.0
2014-Aug-24 05:33N 51°20' E 004°17'0 0.0
2014-Aug-24 04:33N 51°20' E 004°17'0 0.0
2014-Aug-24 03:33N 51°20' E 004°17'0 0.0
2014-Aug-24 02:33N 51°20' E 004°17'0 0.0
2014-Aug-24 01:33N 51°20' E 004°17'0 0.0
2014-Aug-24 00:33N 51°20' E 004°17'0 0.0
2014-Aug-23 23:33N 51°20' E 004°17'0 0.0
2014-Aug-23 22:33N 51°20' E 004°17'0 0.0
2014-Aug-23 21:33N 51°20' E 004°17'0 0.0
2014-Aug-23 20:34N 51°20' E 004°17'  

Dump ship's entire track history